Time;durP1;ratioP1;P1;durP2;ratioP2;P2;SDS_P1;SDS_P2;PMS_P1;PMS_P2;Temp;Humidity;BMP_temperature;BMP_pressure;BME280_temperature;BME280_humidity;BME280_pressure;Samples;Min_cycle;Max_cycle;Signal;HPM_P1;HPM_P2
2021/03/29 00:00:12;;;;;;;14.53;6.60;;;;;;;;;;5053006;28;20201;-67
2021/03/29 00:02:37;;;;;;;12.03;7.00;;;;;;;;;;5046833;28;20186;-67
2021/03/29 00:05:03;;;;;;;12.03;6.60;;;;;;;;;;5048655;28;20174;-67
2021/03/29 00:07:29;;;;;;;12.70;6.17;;;;;;;;;;5044854;28;20213;-68
2021/03/29 00:09:55;;;;;;;12.67;6.10;;;;;;;;;;5046566;28;20331;-67
2021/03/29 00:12:22;;;;;;;12.80;7.20;;;;;;;;;;5050116;28;21425;-67
2021/03/29 00:14:48;;;;;;;17.73;8.17;;;;;;;;;;5049206;28;20260;-67
2021/03/29 00:17:13;;;;;;;14.20;6.50;;;;;;;;;;5045809;28;20293;-67
2021/03/29 00:19:39;;;;;;;11.03;6.60;;;;;;;;;;5046576;28;20201;-68
2021/03/29 00:22:04;;;;;;;12.37;6.30;;;;;;;;;;5050650;28;20193;-67
2021/03/29 00:24:30;;;;;;;15.53;6.63;;;;;;;;;;5049203;28;20214;-67
2021/03/29 00:26:55;;;;;;;12.20;7.17;;;;;;;;;;5050301;28;20188;-67
2021/03/29 00:29:21;;;;;;;13.17;6.33;;;;;;;;;;5048966;28;20184;-67
2021/03/29 00:31:46;;;;;;;11.33;6.30;;;;;;;;;;5041948;28;20194;-67
2021/03/29 00:34:11;;;;;;;16.63;6.93;;;;;;;;;;5050979;28;20180;-66
2021/03/29 00:36:37;;;;;;;14.33;6.97;;;;;;;;;;5045938;28;20900;-67
2021/03/29 00:39:04;;;;;;;8.93;6.83;;;;;;;;;;5041443;28;20169;-67
2021/03/29 00:41:30;;;;;;;13.13;6.70;;;;;;;;;;5046106;28;20194;-67
2021/03/29 00:43:55;;;;;;;13.07;7.23;;;;;;;;;;5048383;28;20184;-67
2021/03/29 00:46:21;;;;;;;15.33;7.03;;;;;;;;;;5057356;28;20169;-67
2021/03/29 00:48:48;;;;;;;17.07;7.77;;;;;;;;;;5053241;28;20582;-67
2021/03/29 00:51:24;;;;;;;12.23;7.20;;;;;;;;;;5046307;28;20323;-67
2021/03/29 00:53:51;;;;;;;16.57;7.70;;;;;;;;;;5042076;28;20186;-67
2021/03/29 00:56:17;;;;;;;13.67;7.27;;;;;;;;;;5046361;28;20229;-67
2021/03/29 00:58:44;;;;;;;13.37;7.93;;;;;;;;;;5049554;28;20651;-68
2021/03/29 01:01:10;;;;;;;13.10;7.60;;;;;;;;;;5045368;28;20198;-67
2021/03/29 01:03:37;;;;;;;16.70;8.73;;;;;;;;;;5045507;28;20179;-67
2021/03/29 01:06:04;;;;;;;11.47;8.27;;;;;;;;;;5041978;28;20208;-67
2021/03/29 01:08:30;;;;;;;13.20;9.17;;;;;;;;;;5044738;28;20169;-67
2021/03/29 01:10:57;;;;;;;13.53;9.00;;;;;;;;;;5050384;28;20217;-67
2021/03/29 01:13:24;;;;;;;12.33;8.50;;;;;;;;;;5051031;28;20173;-68
2021/03/29 01:15:49;;;;;;;15.70;8.43;;;;;;;;;;5053859;28;20223;-66
2021/03/29 01:18:15;;;;;;;14.70;9.03;;;;;;;;;;5047799;28;20659;-67
2021/03/29 01:20:48;;;;;;;17.20;9.50;;;;;;;;;;5048403;28;20208;-67
2021/03/29 01:23:13;;;;;;;15.93;9.07;;;;;;;;;;5046618;28;20181;-67
2021/03/29 01:25:49;;;;;;;12.50;9.17;;;;;;;;;;5051627;28;20200;-67
2021/03/29 01:28:16;;;;;;;14.10;9.40;;;;;;;;;;5047708;28;20181;-67
2021/03/29 01:30:42;;;;;;;15.37;9.50;;;;;;;;;;5050080;28;20216;-68
2021/03/29 01:33:08;;;;;;;17.47;10.10;;;;;;;;;;5048245;28;20188;-68
2021/03/29 01:35:35;;;;;;;21.00;9.43;;;;;;;;;;5050014;28;20178;-67
2021/03/29 01:38:00;;;;;;;13.57;8.53;;;;;;;;;;5049275;28;20181;-67
2021/03/29 01:40:26;;;;;;;17.60;9.20;;;;;;;;;;5045922;28;20575;-67
2021/03/29 01:42:51;;;;;;;20.97;9.47;;;;;;;;;;5045169;28;20173;-67
2021/03/29 01:45:18;;;;;;;17.10;8.43;;;;;;;;;;5049522;28;20559;-67
2021/03/29 01:47:44;;;;;;;15.97;9.53;;;;;;;;;;5048389;28;20268;-68
2021/03/29 01:50:10;;;;;;;16.17;9.63;;;;;;;;;;5047630;28;20288;-67
2021/03/29 01:52:35;;;;;;;15.33;9.90;;;;;;;;;;5048532;28;20190;-68
2021/03/29 01:55:03;;;;;;;18.73;9.13;;;;;;;;;;5043568;28;20182;-68
2021/03/29 01:57:28;;;;;;;17.53;8.93;;;;;;;;;;5048578;28;20694;-67
2021/03/29 01:59:53;;;;;;;16.50;9.43;;;;;;;;;;5048986;28;20223;-68
2021/03/29 02:02:19;;;;;;;17.93;9.90;;;;;;;;;;5048050;28;20189;-67
2021/03/29 02:04:45;;;;;;;19.43;9.30;;;;;;;;;;5045712;28;20616;-67
2021/03/29 02:07:10;;;;;;;14.47;9.17;;;;;;;;;;5049453;28;20178;-68
2021/03/29 02:09:35;;;;;;;13.87;8.70;;;;;;;;;;5047495;28;20635;-68
2021/03/29 02:12:03;;;;;;;14.07;8.40;;;;;;;;;;5049252;28;20178;-67
2021/03/29 02:14:28;;;;;;;14.33;8.10;;;;;;;;;;5047978;28;20207;-67
2021/03/29 02:16:56;;;;;;;14.57;8.70;;;;;;;;;;5049908;28;20193;-68
2021/03/29 02:19:22;;;;;;;16.97;8.13;;;;;;;;;;5045952;28;20174;-68
2021/03/29 02:21:48;;;;;;;12.37;8.60;;;;;;;;;;5051671;28;20184;-67
2021/03/29 02:24:14;;;;;;;14.87;8.30;;;;;;;;;;5052192;28;20252;-68
2021/03/29 02:26:40;;;;;;;16.90;8.87;;;;;;;;;;5047108;28;20261;-68
2021/03/29 02:29:06;;;;;;;15.40;8.57;;;;;;;;;;5045914;28;20177;-68
2021/03/29 02:31:32;;;;;;;15.50;9.47;;;;;;;;;;5042741;28;20692;-68
2021/03/29 02:33:58;;;;;;;13.00;8.23;;;;;;;;;;5036344;28;20264;-68
2021/03/29 02:36:24;;;;;;;18.10;8.70;;;;;;;;;;5046701;28;20252;-67
2021/03/29 02:38:49;;;;;;;14.60;8.43;;;;;;;;;;5041919;28;20177;-67
2021/03/29 02:41:15;;;;;;;14.77;8.93;;;;;;;;;;5045186;28;20683;-67
2021/03/29 02:43:44;;;;;;;15.00;8.27;;;;;;;;;;5050346;28;20230;-68
2021/03/29 02:46:09;;;;;;;15.43;7.80;;;;;;;;;;5045333;28;20186;-67
2021/03/29 02:48:39;;;;;;;11.67;9.03;;;;;;;;;;5045981;28;20232;-68
2021/03/29 02:51:06;;;;;;;19.10;8.50;;;;;;;;;;5048398;28;20243;-67
2021/03/29 02:53:32;;;;;;;13.70;8.27;;;;;;;;;;5048208;28;20261;-67
2021/03/29 02:56:08;;;;;;;12.63;8.40;;;;;;;;;;5052497;28;20276;-67
2021/03/29 02:58:35;;;;;;;17.87;8.83;;;;;;;;;;5050615;28;20193;-68
2021/03/29 03:01:01;;;;;;;10.80;7.90;;;;;;;;;;5050584;28;20243;-68
2021/03/29 03:03:26;;;;;;;11.43;7.83;;;;;;;;;;5050091;28;20181;-66
2021/03/29 03:05:53;;;;;;;15.47;7.63;;;;;;;;;;5051546;28;20193;-68
2021/03/29 03:08:19;;;;;;;17.10;9.33;;;;;;;;;;5048008;28;20189;-67
2021/03/29 03:10:45;;;;;;;19.50;8.30;;;;;;;;;;5052322;28;20201;-67
2021/03/29 03:13:10;;;;;;;12.47;9.40;;;;;;;;;;5052343;28;20236;-68
2021/03/29 03:15:37;;;;;;;14.00;9.07;;;;;;;;;;5046410;28;20178;-67
2021/03/29 03:18:03;;;;;;;16.83;8.60;;;;;;;;;;5049338;28;21438;-68
2021/03/29 03:20:29;;;;;;;10.47;6.83;;;;;;;;;;5053961;28;20640;-67
2021/03/29 03:22:54;;;;;;;15.53;7.90;;;;;;;;;;5053001;28;20230;-68
2021/03/29 03:25:21;;;;;;;13.17;7.03;;;;;;;;;;5052665;28;20177;-67
2021/03/29 03:27:46;;;;;;;12.40;6.97;;;;;;;;;;5050354;28;20285;-67
2021/03/29 03:30:16;;;;;;;13.33;6.03;;;;;;;;;;5052819;28;20343;-67
2021/03/29 03:32:41;;;;;;;14.47;6.93;;;;;;;;;;5051715;28;20204;-66
2021/03/29 03:35:06;;;;;;;11.07;6.30;;;;;;;;;;5050427;28;20181;-68
2021/03/29 03:37:31;;;;;;;10.83;5.50;;;;;;;;;;5053290;28;20262;-67
2021/03/29 03:39:57;;;;;;;14.80;6.00;;;;;;;;;;5046797;28;20673;-68
2021/03/29 03:42:22;;;;;;;8.83;5.37;;;;;;;;;;5046777;28;20170;-68
2021/03/29 03:44:48;;;;;;;8.90;5.10;;;;;;;;;;5053916;28;20198;-67
2021/03/29 03:47:13;;;;;;;11.17;4.93;;;;;;;;;;5051653;28;20331;-67
2021/03/29 03:49:38;;;;;;;11.07;4.43;;;;;;;;;;5048235;28;20209;-68
2021/03/29 03:52:04;;;;;;;10.80;6.23;;;;;;;;;;5052409;28;20208;-68
2021/03/29 03:54:29;;;;;;;8.43;4.33;;;;;;;;;;5044669;28;20182;-68
2021/03/29 03:56:54;;;;;;;15.03;6.07;;;;;;;;;;5049450;28;20228;-68
2021/03/29 03:59:20;;;;;;;8.97;4.73;;;;;;;;;;5049759;28;20248;-68
2021/03/29 04:02:01;;;;;;;8.47;4.57;;;;;;;;;;5049411;28;20619;-67
2021/03/29 04:04:26;;;;;;;9.40;4.60;;;;;;;;;;5048518;28;20590;-67
2021/03/29 04:06:52;;;;;;;8.80;4.67;;;;;;;;;;5050707;28;20189;-68
2021/03/29 04:09:17;;;;;;;10.40;5.07;;;;;;;;;;5051083;28;20261;-68
2021/03/29 04:11:44;;;;;;;10.00;4.53;;;;;;;;;;5048373;28;20571;-68
2021/03/29 04:14:10;;;;;;;15.23;4.80;;;;;;;;;;5048955;28;20647;-68
2021/03/29 04:16:35;;;;;;;8.47;4.93;;;;;;;;;;5048630;28;20202;-68
2021/03/29 04:19:00;;;;;;;10.50;5.07;;;;;;;;;;5051529;28;20220;-68
2021/03/29 04:21:25;;;;;;;9.70;4.80;;;;;;;;;;5040975;28;20202;-67
2021/03/29 04:23:50;;;;;;;8.70;4.33;;;;;;;;;;5038187;28;20666;-67
2021/03/29 04:26:15;;;;;;;11.67;4.77;;;;;;;;;;5038911;28;20182;-68
2021/03/29 04:28:41;;;;;;;9.07;4.70;;;;;;;;;;5037873;28;20205;-67
2021/03/29 04:31:06;;;;;;;11.97;5.60;;;;;;;;;;5042364;28;20206;-68
2021/03/29 04:33:31;;;;;;;11.40;5.07;;;;;;;;;;5041680;28;20204;-68
2021/03/29 04:35:56;;;;;;;10.87;5.13;;;;;;;;;;5044666;28;20683;-68
2021/03/29 04:38:21;;;;;;;7.73;4.30;;;;;;;;;;5050894;28;20192;-67
2021/03/29 04:40:47;;;;;;;11.83;5.07;;;;;;;;;;5051116;28;20220;-68
2021/03/29 04:43:12;;;;;;;10.97;5.07;;;;;;;;;;5050988;28;20225;-68
2021/03/29 04:45:37;;;;;;;13.53;5.10;;;;;;;;;;5039374;28;20174;-67
2021/03/29 04:48:03;;;;;;;10.63;5.60;;;;;;;;;;5048915;28;20559;-67
2021/03/29 04:50:28;;;;;;;10.23;5.23;;;;;;;;;;5048527;28;20694;-68
2021/03/29 04:52:53;;;;;;;8.80;5.47;;;;;;;;;;5045854;28;20177;-68
2021/03/29 04:55:19;;;;;;;11.93;5.77;;;;;;;;;;5053458;28;20170;-67
2021/03/29 04:57:44;;;;;;;8.83;4.67;;;;;;;;;;5048513;28;20346;-68
2021/03/29 05:00:10;;;;;;;9.87;5.00;;;;;;;;;;5047899;28;20580;-67
2021/03/29 05:02:35;;;;;;;11.20;5.00;;;;;;;;;;5040759;28;20188;-68
2021/03/29 05:05:00;;;;;;;9.00;4.83;;;;;;;;;;5045171;28;20173;-67
2021/03/29 05:07:26;;;;;;;8.50;4.33;;;;;;;;;;5045965;28;20682;-67
2021/03/29 05:09:51;;;;;;;11.63;5.20;;;;;;;;;;5049263;28;20623;-67
2021/03/29 05:12:22;;;;;;;12.67;5.50;;;;;;;;;;5045271;28;20476;-68
2021/03/29 05:14:47;;;;;;;18.47;7.03;;;;;;;;;;5049056;28;20276;-68
2021/03/29 05:17:13;;;;;;;9.40;5.33;;;;;;;;;;5047652;28;20676;-67
2021/03/29 05:19:38;;;;;;;8.20;5.20;;;;;;;;;;5051410;28;20169;-66
2021/03/29 05:22:03;;;;;;;11.43;4.80;;;;;;;;;;5049328;28;20174;-67
2021/03/29 05:24:29;;;;;;;11.50;4.87;;;;;;;;;;5047901;28;20655;-67
2021/03/29 05:26:54;;;;;;;10.90;6.10;;;;;;;;;;5047516;28;20596;-67
2021/03/29 05:29:20;;;;;;;13.27;5.43;;;;;;;;;;5048017;28;20178;-66
2021/03/29 05:31:45;;;;;;;14.00;4.70;;;;;;;;;;5040428;28;20273;-67
2021/03/29 05:34:11;;;;;;;14.47;4.60;;;;;;;;;;5050634;28;20260;-67
2021/03/29 05:36:38;;;;;;;9.53;5.13;;;;;;;;;;5042917;28;20251;-66
2021/03/29 05:39:04;;;;;;;11.97;6.07;;;;;;;;;;5043006;28;20257;-67
2021/03/29 05:41:29;;;;;;;11.53;5.20;;;;;;;;;;5045917;28;20289;-67
2021/03/29 05:43:55;;;;;;;11.60;5.90;;;;;;;;;;5049163;28;20265;-67
2021/03/29 05:46:20;;;;;;;8.23;4.40;;;;;;;;;;5050014;28;20186;-67
2021/03/29 05:48:45;;;;;;;8.37;4.97;;;;;;;;;;5046030;28;20180;-67
2021/03/29 05:51:11;;;;;;;14.87;6.10;;;;;;;;;;5037068;28;20225;-67
2021/03/29 05:53:36;;;;;;;14.40;5.23;;;;;;;;;;5038126;28;20675;-67
2021/03/29 05:56:05;;;;;;;10.67;5.67;;;;;;;;;;5038896;28;20194;-68
2021/03/29 05:58:35;;;;;;;13.83;5.33;;;;;;;;;;5034772;28;20181;-66
2021/03/29 06:01:00;;;;;;;8.03;4.60;;;;;;;;;;5036084;28;20197;-68
2021/03/29 06:03:26;;;;;;;10.83;4.27;;;;;;;;;;5039390;28;20455;-67
2021/03/29 06:05:53;;;;;;;14.27;5.33;;;;;;;;;;5040448;28;20862;-67
2021/03/29 06:08:19;;;;;;;8.10;4.40;;;;;;;;;;5037942;28;20264;-67
2021/03/29 06:10:44;;;;;;;12.23;4.20;;;;;;;;;;5036109;28;20193;-68
2021/03/29 06:13:28;;;;;;;9.27;5.07;;;;;;;;;;5036325;28;20178;-67
2021/03/29 06:16:01;;;;;;;15.13;4.90;;;;;;;;;;5038731;28;20193;-68
2021/03/29 06:18:27;;;;;;;9.67;4.73;;;;;;;;;;5037242;28;20173;-67
2021/03/29 06:20:58;;;;;;;11.50;4.63;;;;;;;;;;5041964;28;20251;-67
2021/03/29 06:23:23;;;;;;;11.67;4.90;;;;;;;;;;5036804;28;20181;-67
2021/03/29 06:25:48;;;;;;;9.87;4.03;;;;;;;;;;5036498;28;20652;-67
2021/03/29 06:28:26;;;;;;;9.93;4.93;;;;;;;;;;5039151;28;20201;-68
2021/03/29 06:30:51;;;;;;;8.13;3.90;;;;;;;;;;5042532;28;20193;-67
2021/03/29 06:33:17;;;;;;;10.73;5.40;;;;;;;;;;5038573;28;20193;-66
2021/03/29 06:35:43;;;;;;;11.20;4.70;;;;;;;;;;5050005;28;20235;-68
2021/03/29 06:38:08;;;;;;;9.83;4.93;;;;;;;;;;5054793;28;20173;-68
2021/03/29 06:40:34;;;;;;;8.33;3.97;;;;;;;;;;5052654;28;20189;-67
2021/03/29 06:43:01;;;;;;;8.60;4.57;;;;;;;;;;5047207;28;20591;-67
2021/03/29 06:45:27;;;;;;;9.47;4.60;;;;;;;;;;5045311;28;20596;-68
2021/03/29 06:47:52;;;;;;;10.07;4.70;;;;;;;;;;5039273;28;20190;-68
2021/03/29 06:50:24;;;;;;;8.77;4.27;;;;;;;;;;5040893;28;20300;-68
2021/03/29 06:52:50;;;;;;;9.80;4.47;;;;;;;;;;5041510;28;20659;-68
2021/03/29 06:55:16;;;;;;;9.07;4.60;;;;;;;;;;5040827;28;20223;-67
2021/03/29 06:57:42;;;;;;;11.63;4.80;;;;;;;;;;5039709;28;20202;-68
2021/03/29 07:00:14;;;;;;;9.13;4.20;;;;;;;;;;5041356;28;20209;-67
2021/03/29 07:02:44;;;;;;;12.57;4.33;;;;;;;;;;5044280;28;20589;-66
2021/03/29 07:05:09;;;;;;;11.20;4.20;;;;;;;;;;5046597;28;20201;-68
2021/03/29 07:07:36;;;;;;;14.67;6.03;;;;;;;;;;5044035;28;20185;-69
2021/03/29 07:10:02;;;;;;;11.37;4.47;;;;;;;;;;5047873;28;20208;-69
2021/03/29 07:12:31;;;;;;;11.17;4.67;;;;;;;;;;5048744;28;20618;-68
2021/03/29 07:14:58;;;;;;;11.07;4.13;;;;;;;;;;5047693;28;20182;-67
2021/03/29 07:17:25;;;;;;;9.57;4.17;;;;;;;;;;5039862;28;20212;-67
2021/03/29 07:19:50;;;;;;;11.47;4.57;;;;;;;;;;5051131;28;20215;-66
2021/03/29 07:22:18;;;;;;;7.70;4.20;;;;;;;;;;5050220;28;20256;-67
2021/03/29 07:24:44;;;;;;;5.13;3.90;;;;;;;;;;5049284;28;20174;-67
2021/03/29 07:27:10;;;;;;;9.97;3.93;;;;;;;;;;5051035;28;20174;-67
2021/03/29 07:29:45;;;;;;;19.67;5.23;;;;;;;;;;5042273;28;20210;-67
2021/03/29 07:32:27;;;;;;;9.50;4.30;;;;;;;;;;5046923;28;20217;-67
2021/03/29 07:34:52;;;;;;;14.83;6.77;;;;;;;;;;5049240;28;20193;-65
2021/03/29 07:37:32;;;;;;;9.70;4.20;;;;;;;;;;5051685;28;20206;-67
2021/03/29 07:39:57;;;;;;;8.23;3.90;;;;;;;;;;5022851;28;20220;-67
2021/03/29 07:42:22;;;;;;;9.43;4.17;;;;;;;;;;5029946;28;20186;-67
2021/03/29 07:44:50;;;;;;;9.90;4.47;;;;;;;;;;5025833;28;20265;-66
2021/03/29 07:47:35;;;;;;;10.27;4.40;;;;;;;;;;5025165;28;20232;-67
2021/03/29 07:50:01;;;;;;;12.37;4.63;;;;;;;;;;5024651;28;20212;-66
2021/03/29 07:52:29;;;;;;;13.13;4.50;;;;;;;;;;5029389;28;20205;-67
2021/03/29 07:54:55;;;;;;;11.90;4.43;;;;;;;;;;5024984;28;20186;-65
2021/03/29 07:57:39;;;;;;;10.07;4.40;;;;;;;;;;5025857;28;20210;-67
2021/03/29 08:00:04;;;;;;;8.43;3.67;;;;;;;;;;5028661;28;20602;-67
2021/03/29 08:02:33;;;;;;;8.40;4.03;;;;;;;;;;5042674;28;20202;-70
2021/03/29 08:04:59;;;;;;;9.30;4.53;;;;;;;;;;5031802;28;20186;-67
2021/03/29 08:07:40;;;;;;;12.23;4.27;;;;;;;;;;5042605;28;20227;-65
2021/03/29 08:10:06;;;;;;;9.93;4.43;;;;;;;;;;5034507;28;20205;-67
2021/03/29 08:12:32;;;;;;;13.53;3.83;;;;;;;;;;5027545;28;20204;-68
2021/03/29 08:14:58;;;;;;;8.93;4.17;;;;;;;;;;5036899;28;20608;-67
2021/03/29 08:17:36;;;;;;;10.20;4.37;;;;;;;;;;5028737;28;20237;-67
2021/03/29 08:20:10;;;;;;;9.73;3.37;;;;;;;;;;5022915;28;20204;-67
2021/03/29 08:22:35;;;;;;;9.20;3.20;;;;;;;;;;5026758;28;20182;-67
2021/03/29 08:25:00;;;;;;;8.83;3.97;;;;;;;;;;5039227;28;20544;-67
2021/03/29 08:27:25;;;;;;;14.20;4.20;;;;;;;;;;5037247;28;20284;-67
2021/03/29 08:29:53;;;;;;;7.80;3.97;;;;;;;;;;5040307;28;20691;-67
2021/03/29 08:32:31;;;;;;;16.15;4.15;;;;;;;;;;5038971;28;20442;-67
2021/03/29 08:35:01;;;;;;;8.00;3.58;;;;;;;;;;5050590;28;20185;-67
2021/03/29 08:37:30;;;;;;;9.45;3.42;;;;;;;;;;5038697;28;20213;-67
2021/03/29 08:39:56;;;;;;;9.93;3.78;;;;;;;;;;5032985;28;20314;-67
2021/03/29 08:42:26;;;;;;;7.72;3.50;;;;;;;;;;5025497;28;20216;-67
2021/03/29 08:44:51;;;;;;;9.70;3.95;;;;;;;;;;5028972;28;20198;-67
2021/03/29 08:47:19;;;;;;;7.45;3.33;;;;;;;;;;5043599;28;20578;-66
2021/03/29 08:49:45;;;;;;;12.13;4.60;;;;;;;;;;5023358;28;20575;-66
2021/03/29 08:52:11;;;;;;;9.93;4.72;;;;;;;;;;5027957;28;20698;-66
2021/03/29 08:54:45;;;;;;;7.30;3.55;;;;;;;;;;5029283;28;20612;-66
2021/03/29 08:57:10;;;;;;;8.38;3.55;;;;;;;;;;5029601;28;20737;-67
2021/03/29 08:59:36;;;;;;;9.95;4.82;;;;;;;;;;5025093;28;20194;-67
2021/03/29 09:02:12;;;;;;;10.43;4.38;;;;;;;;;;5041921;28;20174;-68
2021/03/29 09:04:50;;;;;;;9.35;3.50;;;;;;;;;;5035076;28;20836;-66
2021/03/29 09:07:15;;;;;;;11.52;3.75;;;;;;;;;;5030750;28;20187;-67
2021/03/29 09:09:40;;;;;;;10.00;3.85;;;;;;;;;;5024062;28;20205;-68
2021/03/29 09:12:06;;;;;;;5.90;3.47;;;;;;;;;;5022562;28;20185;-67
2021/03/29 09:14:34;;;;;;;9.82;4.60;;;;;;;;;;5024708;28;20244;-68
2021/03/29 09:17:00;;;;;;;12.35;3.85;;;;;;;;;;5036404;28;20255;-67
2021/03/29 09:19:25;;;;;;;10.82;4.32;;;;;;;;;;5026044;28;20211;-67
2021/03/29 09:21:55;;;;;;;8.30;4.13;;;;;;;;;;5023617;28;20273;-66
2021/03/29 09:24:24;;;;;;;14.65;4.60;;;;;;;;;;5023937;28;20431;-65
2021/03/29 09:26:58;;;;;;;8.55;4.05;;;;;;;;;;5040772;28;20188;-67
2021/03/29 09:29:31;;;;;;;8.48;4.00;;;;;;;;;;5023421;28;20173;-67
2021/03/29 09:31:57;;;;;;;8.48;3.95;;;;;;;;;;5025057;28;20193;-66
2021/03/29 09:34:22;;;;;;;8.32;5.30;;;;;;;;;;5026820;28;20193;-68
2021/03/29 09:36:48;;;;;;;11.23;3.88;;;;;;;;;;5022608;28;20206;-67
2021/03/29 09:39:14;;;;;;;10.50;4.15;;;;;;;;;;5027560;28;20170;-65
2021/03/29 09:41:47;;;;;;;8.35;3.92;;;;;;;;;;5028469;28;20190;-67
2021/03/29 09:44:12;;;;;;;10.60;4.18;;;;;;;;;;5030791;28;20607;-67
2021/03/29 09:46:37;;;;;;;11.57;4.65;;;;;;;;;;5025060;28;20273;-67
2021/03/29 09:49:06;;;;;;;8.93;3.83;;;;;;;;;;5025503;28;20177;-67
2021/03/29 09:51:31;;;;;;;9.30;3.80;;;;;;;;;;5030670;28;20206;-67
2021/03/29 09:53:56;;;;;;;8.43;3.92;;;;;;;;;;5028551;28;20236;-67
2021/03/29 09:56:31;;;;;;;17.80;5.43;;;;;;;;;;5027900;28;20263;-66
2021/03/29 09:58:57;;;;;;;11.57;4.70;;;;;;;;;;5027594;28;20454;-68
2021/03/29 10:01:23;;;;;;;8.10;4.32;;;;;;;;;;5025426;28;20715;-68
2021/03/29 10:03:55;;;;;;;11.05;4.63;;;;;;;;;;5032811;28;20190;-66
2021/03/29 10:06:21;;;;;;;10.45;4.50;;;;;;;;;;5029766;28;20174;-67
2021/03/29 10:09:01;;;;;;;19.08;5.63;;;;;;;;;;5032179;28;20590;-67
2021/03/29 10:11:26;;;;;;;9.15;3.80;;;;;;;;;;5032617;28;20710;-69
2021/03/29 10:14:03;;;;;;;7.63;4.32;;;;;;;;;;5028230;28;20280;-68
2021/03/29 10:16:28;;;;;;;8.85;3.50;;;;;;;;;;5030821;28;20201;-68
2021/03/29 10:19:03;;;;;;;10.95;4.05;;;;;;;;;;5033935;28;20185;-67
2021/03/29 10:21:28;;;;;;;9.30;4.32;;;;;;;;;;5031865;28;20912;-68
2021/03/29 10:24:13;;;;;;;8.38;4.53;;;;;;;;;;5033574;28;20187;-68
2021/03/29 10:26:38;;;;;;;9.98;4.70;;;;;;;;;;5033974;28;20188;-67
2021/03/29 10:29:04;;;;;;;9.02;4.22;;;;;;;;;;5033357;28;20531;-68
2021/03/29 10:31:32;;;;;;;8.88;4.78;;;;;;;;;;5029435;28;20200;-67
2021/03/29 10:33:58;;;;;;;7.32;4.05;;;;;;;;;;5029771;28;20209;-66
2021/03/29 10:36:24;;;;;;;8.52;5.13;;;;;;;;;;5029391;28;20205;-68
2021/03/29 10:38:50;;;;;;;8.98;5.00;;;;;;;;;;5031041;28;20659;-70
2021/03/29 10:41:15;;;;;;;9.90;3.92;;;;;;;;;;5032737;28;20900;-69
2021/03/29 10:43:41;;;;;;;10.95;5.43;;;;;;;;;;5030700;28;20217;-69
2021/03/29 10:46:06;;;;;;;13.35;5.25;;;;;;;;;;5029352;28;20655;-67
2021/03/29 10:48:31;;;;;;;8.35;4.47;;;;;;;;;;5034364;28;20601;-69
2021/03/29 10:50:57;;;;;;;10.10;4.05;;;;;;;;;;5028177;28;20214;-67
2021/03/29 10:53:23;;;;;;;10.80;5.05;;;;;;;;;;5034462;28;20177;-67
2021/03/29 10:55:48;;;;;;;11.43;4.63;;;;;;;;;;5031152;28;20181;-68
2021/03/29 10:58:13;;;;;;;6.07;3.85;;;;;;;;;;5037586;28;20434;-68
2021/03/29 11:00:38;;;;;;;7.88;3.70;;;;;;;;;;5029922;28;20544;-68
2021/03/29 11:03:04;;;;;;;7.20;4.18;;;;;;;;;;5033971;28;20181;-68
2021/03/29 11:05:29;;;;;;;9.38;4.30;;;;;;;;;;5028818;28;20182;-69
2021/03/29 11:07:54;;;;;;;8.20;4.20;;;;;;;;;;5031481;28;20275;-68
2021/03/29 11:10:19;;;;;;;5.88;3.70;;;;;;;;;;5029198;28;20653;-68
2021/03/29 11:12:44;;;;;;;9.80;4.38;;;;;;;;;;5037521;28;20749;-71
2021/03/29 11:15:10;;;;;;;7.65;4.60;;;;;;;;;;5031031;28;20240;-68
2021/03/29 11:17:37;;;;;;;12.32;4.97;;;;;;;;;;5026485;28;20232;-69
2021/03/29 11:20:03;;;;;;;9.52;3.72;;;;;;;;;;5025862;28;20208;-68
2021/03/29 11:22:28;;;;;;;12.00;4.38;;;;;;;;;;5023586;28;20207;-68
2021/03/29 11:24:53;;;;;;;10.25;4.80;;;;;;;;;;5025470;28;20184;-68
2021/03/29 11:27:18;;;;;;;11.13;3.95;;;;;;;;;;5026437;28;20178;-68
2021/03/29 11:29:43;;;;;;;10.70;5.10;;;;;;;;;;5026920;28;20198;-68
2021/03/29 11:32:09;;;;;;;6.75;4.18;;;;;;;;;;5027531;28;20303;-69
2021/03/29 11:34:34;;;;;;;15.00;4.70;;;;;;;;;;5022837;28;20194;-68
2021/03/29 11:36:59;;;;;;;6.53;4.20;;;;;;;;;;5032705;28;20465;-68
2021/03/29 11:39:24;;;;;;;10.43;4.10;;;;;;;;;;5028569;28;20428;-67
2021/03/29 11:41:49;;;;;;;10.93;4.45;;;;;;;;;;5032628;28;20183;-68
2021/03/29 11:44:15;;;;;;;12.10;4.37;;;;;;;;;;5027132;28;20186;-68
2021/03/29 11:46:40;;;;;;;8.27;4.20;;;;;;;;;;5026366;28;20915;-68
2021/03/29 11:49:05;;;;;;;10.05;4.07;;;;;;;;;;5025591;28;20423;-68
2021/03/29 11:51:31;;;;;;;9.80;4.22;;;;;;;;;;5026958;28;20225;-68
2021/03/29 11:53:56;;;;;;;10.90;4.53;;;;;;;;;;5026946;28;20271;-68
2021/03/29 11:56:21;;;;;;;7.45;3.83;;;;;;;;;;5023361;28;20294;-68
2021/03/29 11:58:49;;;;;;;7.85;4.65;;;;;;;;;;5030613;28;20260;-68
2021/03/29 12:01:34;;;;;;;9.23;4.80;;;;;;;;;;5028259;28;20715;-68
2021/03/29 12:04:11;;;;;;;9.10;3.97;;;;;;;;;;5030049;28;20190;-68
2021/03/29 12:06:48;;;;;;;9.27;4.45;;;;;;;;;;5028199;28;20179;-68
2021/03/29 12:14:24;;;;;;;9.82;4.90;;;;;;;;;;5027023;28;20181;-68
2021/03/29 12:16:52;;;;;;;12.90;5.50;;;;;;;;;;5027554;28;20217;-68
2021/03/29 12:19:17;;;;;;;7.55;4.80;;;;;;;;;;5031646;28;20174;-70
2021/03/29 12:21:43;;;;;;;8.45;4.20;;;;;;;;;;5024934;28;20198;-68
2021/03/29 12:24:10;;;;;;;10.50;4.78;;;;;;;;;;5026215;28;20250;-68
2021/03/29 12:26:36;;;;;;;8.68;4.88;;;;;;;;;;5025317;28;20537;-69
2021/03/29 12:29:04;;;;;;;7.78;4.15;;;;;;;;;;5023725;28;20265;-67
2021/03/29 12:31:30;;;;;;;7.00;4.15;;;;;;;;;;5024837;28;20201;-67
2021/03/29 12:33:56;;;;;;;9.10;3.85;;;;;;;;;;5029264;28;20185;-68
2021/03/29 12:36:24;;;;;;;8.77;4.45;;;;;;;;;;5026805;28;20202;-67
2021/03/29 12:39:06;;;;;;;11.90;3.90;;;;;;;;;;5030363;28;20182;-67
2021/03/29 12:41:37;;;;;;;8.15;3.88;;;;;;;;;;5023598;28;20226;-68
2021/03/29 12:44:08;;;;;;;6.70;4.50;;;;;;;;;;5025975;28;20184;-68
2021/03/29 12:46:33;;;;;;;6.88;3.78;;;;;;;;;;5023638;28;20251;-68
2021/03/29 12:48:59;;;;;;;6.38;4.40;;;;;;;;;;5028025;28;20186;-69
2021/03/29 12:51:24;;;;;;;9.77;5.05;;;;;;;;;;5025536;28;20293;-67
2021/03/29 12:53:50;;;;;;;6.93;4.50;;;;;;;;;;5026585;28;20186;-68
2021/03/29 12:56:16;;;;;;;9.05;4.53;;;;;;;;;;5025068;28;20209;-68
2021/03/29 12:58:41;;;;;;;5.88;4.50;;;;;;;;;;5024210;28;20182;-67
2021/03/29 13:01:07;;;;;;;10.20;4.90;;;;;;;;;;5025657;28;20511;-68
2021/03/29 13:03:37;;;;;;;12.27;5.20;;;;;;;;;;5034215;28;20521;-67
2021/03/29 13:06:12;;;;;;;7.55;4.57;;;;;;;;;;5020496;28;20174;-67
2021/03/29 13:08:38;;;;;;;6.65;4.40;;;;;;;;;;5033285;28;20227;-67
2021/03/29 13:14:09;;;;;;;8.93;4.80;;;;;;;;;;5040082;28;20212;-68
2021/03/29 13:16:34;;;;;;;8.88;4.88;;;;;;;;;;5026922;28;20218;-67
2021/03/29 13:18:59;;;;;;;10.48;5.10;;;;;;;;;;5026928;28;20233;-67
2021/03/29 13:21:24;;;;;;;10.70;4.40;;;;;;;;;;5023879;28;20455;-67
2021/03/29 13:23:50;;;;;;;8.87;4.80;;;;;;;;;;5024284;28;20520;-67
2021/03/29 13:26:18;;;;;;;7.68;4.88;;;;;;;;;;5022482;28;20818;-66
2021/03/29 13:28:43;;;;;;;7.97;5.25;;;;;;;;;;5029067;28;20181;-66
2021/03/29 13:31:08;;;;;;;9.18;4.93;;;;;;;;;;5022268;28;20539;-67
2021/03/29 13:33:34;;;;;;;7.32;4.75;;;;;;;;;;5024491;28;20567;-67
2021/03/29 13:35:59;;;;;;;7.82;5.18;;;;;;;;;;5024945;28;20193;-67
2021/03/29 13:38:24;;;;;;;5.47;4.60;;;;;;;;;;5025081;28;20224;-67
2021/03/29 13:40:51;;;;;;;9.88;5.38;;;;;;;;;;5022479;28;20530;-67
2021/03/29 13:43:17;;;;;;;8.65;4.90;;;;;;;;;;5036858;28;20166;-67
2021/03/29 13:45:42;;;;;;;8.10;4.38;;;;;;;;;;5049129;28;20184;-66
2021/03/29 13:48:07;;;;;;;8.48;4.88;;;;;;;;;;5030723;28;20598;-66
2021/03/29 13:50:34;;;;;;;8.45;5.10;;;;;;;;;;5025261;28;20621;-66
2021/03/29 13:52:59;;;;;;;9.02;4.75;;;;;;;;;;5026241;28;20212;-67
2021/03/29 13:55:24;;;;;;;9.10;5.20;;;;;;;;;;5034530;28;20186;-68
2021/03/29 13:57:50;;;;;;;13.87;6.70;;;;;;;;;;5023007;28;20201;-66
2021/03/29 14:00:17;;;;;;;10.18;5.32;;;;;;;;;;5023580;28;20460;-66
2021/03/29 14:02:43;;;;;;;11.57;6.53;;;;;;;;;;5027249;28;20648;-66
2021/03/29 14:05:09;;;;;;;6.75;4.78;;;;;;;;;;5022848;28;20189;-67
2021/03/29 14:07:34;;;;;;;7.18;5.75;;;;;;;;;;5030552;28;20178;-67
2021/03/29 14:10:00;;;;;;;6.30;5.10;;;;;;;;;;5023757;28;20233;-68
2021/03/29 14:12:25;;;;;;;8.13;5.67;;;;;;;;;;5025532;28;20770;-68
2021/03/29 14:14:51;;;;;;;8.35;6.00;;;;;;;;;;5023062;28;20517;-66
2021/03/29 14:17:16;;;;;;;7.18;5.15;;;;;;;;;;5030584;28;20367;-68
2021/03/29 14:19:41;;;;;;;8.02;5.07;;;;;;;;;;5024916;28;20198;-68
2021/03/29 14:22:07;;;;;;;9.70;4.65;;;;;;;;;;5032414;28;20182;-68
2021/03/29 14:24:32;;;;;;;12.43;5.05;;;;;;;;;;5026520;28;20189;-68
2021/03/29 14:26:57;;;;;;;9.63;4.87;;;;;;;;;;5032964;28;20727;-68
2021/03/29 14:29:22;;;;;;;10.20;5.57;;;;;;;;;;5025380;28;20427;-69
2021/03/29 14:31:47;;;;;;;6.28;5.00;;;;;;;;;;5024050;28;20459;-67
2021/03/29 14:34:17;;;;;;;10.35;5.13;;;;;;;;;;5022924;28;22352;-68
2021/03/29 14:36:57;;;;;;;7.97;4.88;;;;;;;;;;5023956;28;20220;-67
2021/03/29 14:39:30;;;;;;;8.20;4.30;;;;;;;;;;5024139;28;20206;-68
2021/03/29 14:42:17;;;;;;;7.10;5.18;;;;;;;;;;5028146;28;20235;-69